Time;durP1;ratioP1;P1;durP2;ratioP2;P2;SDS_P1;SDS_P2;PMS_P1;PMS_P2;Temp;Humidity;BMP_temperature;BMP_pressure;BME280_temperature;BME280_humidity;BME280_pressure;Samples;Min_cycle;Max_cycle;Signal;HPM_P1;HPM_P2
2023/01/05 00:05:01;;;;;;;1.57;0.80;;;;;;;7.92;97.82;98616.48;3944562;88;21569;-90
2023/01/05 00:24:04;;;;;;;1.20;0.80;;;;;;;7.75;98.82;98591.11;3989225;87;21147;-90
2023/01/05 00:30:07;;;;;;;1.92;0.88;;;;;;;7.74;99.05;98596.33;3986537;87;21036;-89
2023/01/05 00:36:10;;;;;;;1.17;0.80;;;;;;;7.73;99.27;98574.34;3975785;87;21096;-89
2023/01/05 00:42:12;;;;;;;1.65;0.90;;;;;;;7.77;99.80;98583.34;3982888;87;21172;-90
2023/01/05 00:48:14;;;;;;;2.58;0.98;;;;;;;7.75;99.88;98580.98;3989078;87;21027;-89
2023/01/05 00:54:15;;;;;;;1.72;1.17;;;;;;;7.76;99.89;98580.41;3984934;87;20988;-89
2023/01/05 01:00:18;;;;;;;1.72;0.88;;;;;;;7.72;100.00;98572.18;3988165;87;21009;-89
2023/01/05 01:06:20;;;;;;;1.40;0.80;;;;;;;7.77;100.00;98554.16;3982499;87;21069;-90
2023/01/05 01:12:21;;;;;;;1.95;0.85;;;;;;;7.82;100.00;98540.80;3980309;87;20992;-90
2023/01/05 01:18:23;;;;;;;1.32;0.82;;;;;;;7.82;100.00;98532.05;3982713;87;21037;-91
2023/01/05 01:24:26;;;;;;;0.68;0.60;;;;;;;7.81;100.00;98526.97;3983451;87;21084;-90
2023/01/05 01:30:28;;;;;;;1.92;0.95;;;;;;;7.80;100.00;98528.11;3920370;89;21099;-91
2023/01/05 01:36:29;;;;;;;2.12;0.85;;;;;;;7.74;100.00;98522.77;3984773;87;21569;-90
2023/01/05 01:42:31;;;;;;;1.80;0.90;;;;;;;7.68;100.00;98501.09;3983498;87;21580;-90
2023/01/05 01:48:35;;;;;;;1.10;0.80;;;;;;;7.68;100.00;98490.98;3994113;87;21055;-89
2023/01/05 01:54:38;;;;;;;2.55;0.88;;;;;;;7.71;100.00;98504.44;3984777;87;21019;-90
2023/01/05 02:00:40;;;;;;;0.88;0.53;;;;;;;7.72;100.00;98488.31;3983840;87;21094;-89
2023/01/05 02:06:42;;;;;;;1.62;0.85;;;;;;;7.71;100.00;98473.90;3989773;87;21939;-89
2023/01/05 02:13:00;;;;;;;1.20;0.60;;;;;;;7.75;100.00;98471.23;3988347;87;21007;-89
2023/01/05 02:19:42;;;;;;;1.17;0.65;;;;;;;7.87;100.00;98444.54;3990795;87;21555;-89
2023/01/05 02:26:09;;;;;;;0.78;0.60;;;;;;;8.05;100.00;98424.30;3983158;87;22042;-88
2023/01/05 02:32:48;;;;;;;0.90;0.50;;;;;;;8.11;100.00;98424.20;3919353;89;21110;-88
2023/01/05 02:39:13;;;;;;;1.15;0.60;;;;;;;8.21;100.00;98405.80;3917030;89;21129;-87
2023/01/05 02:45:15;;;;;;;0.93;0.70;;;;;;;8.29;100.00;98409.41;3922133;89;21665;-90
2023/01/05 02:51:24;;;;;;;1.17;0.60;;;;;;;8.30;100.00;98407.67;3982910;87;21016;-89
2023/01/05 02:57:51;;;;;;;0.70;0.42;;;;;;;8.27;100.00;98407.05;3918138;89;21110;-89
2023/01/05 03:04:02;;;;;;;;;;;;;;;8.31;100.00;98409.83;3921170;89;21110;-88
2023/01/05 03:16:30;;;;;;;0.90;0.53;;;;;;;8.40;100.00;98383.82;3989882;87;21045;-89
2023/01/05 03:35:33;;;;;;;0.50;0.40;;;;;;;8.61;100.00;98345.05;4063387;86;21505;-87
2023/01/05 03:41:35;;;;;;;1.12;0.50;;;;;;;8.59;100.00;98338.61;3960572;87;21053;-88
2023/01/05 03:47:44;;;;;;;1.85;0.50;;;;;;;8.66;100.00;98322.88;3980694;88;21095;-88
2023/01/05 03:53:45;;;;;;;2.05;0.60;;;;;;;8.78;100.00;98316.54;4037431;86;21600;-88
2023/01/05 03:59:47;;;;;;;1.22;0.62;;;;;;;9.00;100.00;98312.00;3987171;87;21111;-88
2023/01/05 04:05:50;;;;;;;0.50;0.40;;;;;;;9.08;100.00;98306.19;3974835;88;21086;-88
2023/01/05 04:11:53;;;;;;;0.50;0.47;;;;;;;9.13;100.00;98300.38;4063357;86;20963;-89
2023/01/05 04:17:54;;;;;;;0.45;0.30;;;;;;;9.23;100.00;98301.59;4070071;86;21021;-89
2023/01/05 04:23:56;;;;;;;0.50;0.50;;;;;;;9.27;100.00;98294.23;4059004;86;21496;-88
2023/01/05 04:29:58;;;;;;;1.35;0.53;;;;;;;9.26;100.00;98299.47;4035018;87;21043;-89
2023/01/05 04:35:59;;;;;;;1.15;0.62;;;;;;;9.23;100.00;98304.33;4016529;86;21473;-88
2023/01/05 04:42:03;;;;;;;0.90;0.57;;;;;;;9.10;100.00;98299.77;4036326;87;21040;-87
2023/01/05 04:48:06;;;;;;;0.88;0.53;;;;;;;9.06;100.00;98307.17;4037869;87;21091;-90
2023/01/05 04:54:07;;;;;;;1.40;1.05;;;;;;;9.00;100.00;98305.97;4036115;86;21405;-89
2023/01/05 05:00:11;;;;;;;1.17;0.70;;;;;;;8.99;100.00;98302.26;4036705;87;21044;-88
2023/01/05 05:06:13;;;;;;;2.17;0.98;;;;;;;9.06;100.00;98292.73;4036863;87;21040;-88
2023/01/05 05:12:19;;;;;;;1.15;0.70;;;;;;;9.09;100.00;98276.95;4035531;86;21019;-90
2023/01/05 05:18:20;;;;;;;1.15;0.75;;;;;;;9.27;100.00;98284.67;4036435;86;21065;-91
2023/01/05 05:24:22;;;;;;;2.92;0.80;;;;;;;9.40;99.59;98298.96;4039492;86;21016;-89
2023/01/05 05:30:25;;;;;;;2.80;0.80;;;;;;;9.44;99.28;98292.91;4036013;87;20996;-88
2023/01/05 05:36:26;;;;;;;2.50;0.60;;;;;;;9.51;99.05;98266.22;4035737;86;21000;-89
2023/01/05 05:42:28;;;;;;;2.70;0.90;;;;;;;9.48;99.17;98271.87;4037579;87;21854;-89
2023/01/05 05:48:29;;;;;;;6.17;1.62;;;;;;;9.27;99.86;98279.97;4038502;86;20980;-89
2023/01/05 05:54:31;;;;;;;4.00;1.37;;;;;;;9.12;100.00;98285.73;4040097;86;21088;-89
2023/01/05 06:00:32;;;;;;;2.52;1.17;;;;;;;8.96;100.00;98286.05;4037798;87;21520;-89
2023/01/05 06:06:35;;;;;;;3.60;1.40;;;;;;;8.86;100.00;98277.22;4037275;87;21369;-88
2023/01/05 06:12:37;;;;;;;2.42;1.22;;;;;;;8.95;100.00;98272.77;4036447;86;20996;-89
2023/01/05 06:18:38;;;;;;;5.05;1.80;;;;;;;8.97;100.00;98272.58;4036952;86;21533;-87
2023/01/05 06:24:41;;;;;;;6.42;2.00;;;;;;;8.98;100.00;98292.48;4061584;86;21087;-89
2023/01/05 06:30:42;;;;;;;4.87;2.27;;;;;;;8.96;100.00;98291.50;4049779;86;21520;-87
2023/01/05 06:36:44;;;;;;;5.03;1.90;;;;;;;8.89;100.00;98316.61;3983656;88;21083;-89
2023/01/05 06:42:46;;;;;;;4.55;1.47;;;;;;;8.74;100.00;98312.98;3977613;88;21064;-89
2023/01/05 06:48:47;;;;;;;4.47;2.22;;;;;;;8.56;100.00;98295.72;3959527;88;21046;-87
2023/01/05 06:54:49;;;;;;;6.17;2.25;;;;;;;8.44;100.00;98289.77;4068206;86;21075;-88
2023/01/05 07:00:52;;;;;;;4.58;2.00;;;;;;;8.32;100.00;98285.94;4070801;86;21096;-88
2023/01/05 07:06:53;;;;;;;4.90;2.58;;;;;;;8.29;100.00;98281.24;4055381;86;22034;-90
2023/01/05 07:12:57;;;;;;;5.78;1.70;;;;;;;8.29;100.00;98283.41;4071597;86;21099;-89
2023/01/05 07:18:58;;;;;;;5.95;3.15;;;;;;;8.26;100.00;98299.16;4070157;86;21496;-88
2023/01/05 07:24:59;;;;;;;8.95;2.87;;;;;;;8.32;100.00;98318.09;4029957;86;21046;-88
2023/01/05 07:31:01;;;;;;;6.42;2.25;;;;;;;8.29;100.00;98350.78;3986580;87;22275;-87
2023/01/05 07:37:03;;;;;;;7.47;2.58;;;;;;;8.23;100.00;98365.34;3984291;87;21453;-88
2023/01/05 07:43:04;;;;;;;4.50;1.82;;;;;;;8.19;100.00;98393.70;3985496;87;21075;-87
2023/01/05 07:49:06;;;;;;;7.00;2.42;;;;;;;8.13;100.00;98406.87;3979358;87;21156;-89
2023/01/05 07:55:08;;;;;;;5.25;1.75;;;;;;;8.02;100.00;98414.73;3984845;87;21819;-88
2023/01/05 08:01:12;;;;;;;4.47;1.50;;;;;;;7.94;100.00;98428.27;3985102;87;21179;-87
2023/01/05 08:07:14;;;;;;;9.30;2.20;;;;;;;7.89;100.00;98427.22;3982832;87;21047;-89
2023/01/05 08:19:35;;;;;;;10.32;5.37;;;;;;;7.79;100.00;98429.82;3981569;87;21082;-86
2023/01/05 08:25:40;;;;;;;9.45;3.87;;;;;;;7.66;100.00;98433.34;3986912;86;21102;-90
2023/01/05 08:31:41;;;;;;;8.33;3.20;;;;;;;7.56;100.00;98453.64;3982776;87;21067;-86
2023/01/05 08:37:44;;;;;;;6.47;2.70;;;;;;;7.45;100.00;98457.58;3986617;87;21961;-86
2023/01/05 08:43:51;;;;;;;5.47;2.77;;;;;;;7.36;100.00;98433.89;3984596;87;21082;-87
2023/01/05 08:49:52;;;;;;;4.70;2.35;;;;;;;7.28;100.00;98444.46;3981788;87;21108;-86
2023/01/05 08:55:54;;;;;;;5.45;2.75;;;;;;;7.27;100.00;98455.16;3985170;87;21068;-87
2023/01/05 09:01:55;;;;;;;3.75;2.17;;;;;;;7.27;100.00;98452.99;3978623;87;21111;-87
2023/01/05 09:07:57;;;;;;;7.00;2.02;;;;;;;7.24;100.00;98453.73;3985250;87;21080;-87
2023/01/05 09:14:01;;;;;;;8.33;2.65;;;;;;;7.21;100.00;98443.57;3988281;87;21163;-87
2023/01/05 09:20:04;;;;;;;5.00;2.80;;;;;;;7.22;100.00;98447.89;3987769;87;21083;-87
2023/01/05 09:26:10;;;;;;;6.80;3.08;;;;;;;7.25;100.00;98451.23;3959524;87;21075;-89
2023/01/05 09:32:12;;;;;;;7.77;3.17;;;;;;;7.28;100.00;98445.05;3940480;89;21026;-88
2023/01/05 09:38:13;;;;;;;9.08;3.15;;;;;;;7.34;100.00;98430.77;3942170;89;21489;-87
2023/01/05 09:44:37;;;;;;;8.68;3.83;;;;;;;7.51;100.00;98434.32;3940908;87;21070;-88
2023/01/05 09:50:38;;;;;;;7.53;3.05;;;;;;;7.95;100.00;98436.63;3918230;89;22115;-87
2023/01/05 09:56:43;;;;;;;6.90;3.77;;;;;;;8.35;100.00;98424.30;3948780;89;21085;-92
2023/01/05 10:02:56;;;;;;;5.92;3.12;;;;;;;8.38;100.00;98422.19;3951423;89;21067;-88
2023/01/05 10:08:59;;;;;;;4.90;2.65;;;;;;;8.28;100.00;98430.45;3943503;89;21054;-87
2023/01/05 10:15:12;;;;;;;3.45;1.92;;;;;;;8.27;100.00;98413.11;3948242;88;21006;-88
2023/01/05 10:21:41;;;;;;;8.33;2.72;;;;;;;8.32;100.00;98414.91;3944553;87;21054;-88
2023/01/05 10:27:53;;;;;;;4.10;2.30;;;;;;;8.29;100.00;98406.11;4034016;86;21637;-88
2023/01/05 10:34:12;;;;;;;6.60;2.40;;;;;;;8.41;100.00;98399.62;4040386;87;21074;-88
2023/01/05 10:40:34;;;;;;;8.20;2.25;;;;;;;8.47;100.00;98400.24;4033667;87;21039;-87
2023/01/05 10:46:40;;;;;;;6.67;2.77;;;;;;;8.57;100.00;98394.11;4033956;87;21325;-89
2023/01/05 10:52:42;;;;;;;8.93;2.92;;;;;;;8.79;100.00;98371.88;4035792;87;21071;-88
2023/01/05 10:58:45;;;;;;;6.95;3.02;;;;;;;8.91;100.00;98380.56;4036141;86;21580;-87
2023/01/05 11:04:47;;;;;;;5.95;2.65;;;;;;;8.92;100.00;98364.98;4013686;87;21000;-87
2023/01/05 11:10:54;;;;;;;6.20;2.83;;;;;;;9.01;100.00;98376.34;4031457;86;21123;-87
2023/01/05 11:17:05;;;;;;;9.40;2.42;;;;;;;9.05;100.00;98363.52;4031331;87;21060;-88
2023/01/05 11:23:21;;;;;;;6.05;2.77;;;;;;;9.05;100.00;98363.52;4030892;87;21079;-88
2023/01/05 11:29:23;;;;;;;7.58;3.42;;;;;;;9.08;100.00;98362.16;3996203;87;21868;-88
2023/01/05 11:35:36;;;;;;;7.58;3.17;;;;;;;9.09;100.00;98357.49;4005844;87;21004;-90
2023/01/05 11:41:38;;;;;;;9.18;3.33;;;;;;;9.03;100.00;98357.08;3942664;88;21048;-89
2023/01/05 11:47:57;;;;;;;5.33;2.87;;;;;;;9.00;100.00;98346.13;3942171;89;21041;-89
2023/01/05 11:53:59;;;;;;;5.78;2.70;;;;;;;9.00;100.00;98346.13;4031697;86;21581;-90
2023/01/05 12:00:02;;;;;;;5.87;2.55;;;;;;;8.98;100.00;98351.97;3990595;87;21131;-88
2023/01/05 12:06:26;;;;;;;5.75;2.30;;;;;;;9.05;100.00;98343.05;3990495;86;21092;-88
2023/01/05 12:12:48;;;;;;;4.42;2.40;;;;;;;9.21;100.00;98350.34;3989685;87;21099;-88
2023/01/05 12:19:13;;;;;;;4.05;1.80;;;;;;;9.21;100.00;98358.54;3989661;87;21086;-89
2023/01/05 12:25:35;;;;;;;6.40;2.35;;;;;;;9.19;100.00;98349.96;4000398;87;21020;-86
2023/01/05 12:32:12;;;;;;;7.72;1.98;;;;;;;9.14;100.00;98338.03;3925939;89;21047;-88
2023/01/05 12:38:47;;;;;;;4.93;2.20;;;;;;;9.06;100.00;98351.43;3974298;87;21036;-87
2023/01/05 12:45:17;;;;;;;5.33;2.15;;;;;;;9.03;100.00;98345.37;3988655;87;21763;-88
2023/01/05 12:51:34;;;;;;;5.65;2.52;;;;;;;9.06;100.00;98349.49;3991575;87;21154;-88
2023/01/05 12:57:44;;;;;;;8.77;3.70;;;;;;;9.06;100.00;98350.06;3932928;88;21134;-88
2023/01/05 13:03:57;;;;;;;5.78;2.55;;;;;;;8.87;100.00;98362.59;3937797;89;21090;-89
2023/01/05 13:10:03;;;;;;;6.12;3.12;;;;;;;8.72;100.00;98363.66;3937963;88;21492;-90
2023/01/05 13:16:24;;;;;;;9.58;4.00;;;;;;;8.70;100.00;98357.78;3937412;88;21073;-89
2023/01/05 13:22:30;;;;;;;8.40;3.83;;;;;;;8.69;100.00;98361.08;3935422;88;21047;-88
2023/01/05 13:28:33;;;;;;;9.53;5.00;;;;;;;8.67;100.00;98359.91;3938345;89;21066;-88
2023/01/05 13:35:01;;;;;;;8.10;3.60;;;;;;;8.67;100.00;98348.42;3940561;87;21025;-88
2023/01/05 13:41:19;;;;;;;7.60;3.35;;;;;;;8.78;100.00;98337.01;3945097;88;21095;-88
2023/01/05 13:47:49;;;;;;;9.33;3.27;;;;;;;8.78;100.00;98342.47;3918361;89;21026;-87
2023/01/05 13:53:52;;;;;;;9.53;3.22;;;;;;;8.78;100.00;98343.83;3833899;86;10000355;-89
2023/01/05 14:00:02;;;;;;;7.72;2.60;;;;;;;8.87;100.00;98347.58;3942154;87;21594;-87
2023/01/05 14:06:17;;;;;;;4.53;2.22;;;;;;;8.89;100.00;98372.56;3946837;89;21907;-90
2023/01/05 14:12:23;;;;;;;5.58;2.05;;;;;;;8.90;100.00;98443.72;3971374;87;21111;-88
2023/01/05 14:18:51;;;;;;;2.98;1.82;;;;;;;8.36;100.00;98506.31;3954541;88;21136;-90
2023/01/05 14:24:52;;;;;;;2.52;1.10;;;;;;;7.63;100.00;98534.88;3939966;88;21066;-90
2023/01/05 14:31:17;;;;;;;2.35;1.30;;;;;;;7.14;100.00;98525.91;3991641;88;21032;-88
2023/01/05 14:37:36;;;;;;;3.47;1.00;;;;;;;6.83;100.00;98516.61;4011709;86;21079;-88
2023/01/05 14:43:39;;;;;;;2.42;1.22;;;;;;;6.62;100.00;98490.96;4031648;86;21085;-87
2023/01/05 14:49:54;;;;;;;2.52;1.45;;;;;;;6.49;100.00;98497.13;4047042;86;21035;-87
2023/01/05 14:56:04;;;;;;;4.55;2.22;;;;;;;6.45;100.00;98528.92;4046228;86;21102;-87
2023/01/05 15:02:14;;;;;;;2.20;0.62;;;;;;;6.50;100.00;98527.84;4042730;86;21056;-87
2023/01/05 15:08:48;;;;;;;3.00;1.52;;;;;;;6.50;100.00;98481.02;4014508;86;21068;-88
2023/01/05 15:15:36;;;;;;;5.42;2.60;;;;;;;6.43;100.00;98503.22;3985433;87;21197;-87
2023/01/05 15:22:09;;;;;;;7.42;2.37;;;;;;;6.29;100.00;98504.53;4020104;86;21037;-88
2023/01/05 15:28:47;;;;;;;6.90;2.50;;;;;;;6.21;100.00;98500.66;4030268;86;21093;-88
2023/01/05 15:35:21;;;;;;;8.30;3.22;;;;;;;6.21;100.00;98505.53;3936532;88;21042;-88
2023/01/05 15:41:26;;;;;;;13.80;3.10;;;;;;;6.21;100.00;98497.94;3939855;88;21066;-88
2023/01/05 15:47:29;;;;;;;8.38;3.40;;;;;;;6.22;100.00;98512.53;3934836;88;21086;-88
2023/01/05 15:53:43;;;;;;;10.00;4.15;;;;;;;6.23;100.00;98503.81;3895120;89;21643;-87
2023/01/05 15:59:47;;;;;;;10.90;5.15;;;;;;;6.26;100.00;98517.45;4005966;87;21063;-88
2023/01/05 16:05:57;;;;;;;17.02;7.97;;;;;;;6.27;100.00;98530.48;4005459;86;21111;-89
2023/01/05 16:12:10;;;;;;;13.03;6.90;;;;;;;6.26;100.00;98528.33;4008422;87;21084;-88
2023/01/05 16:18:16;;;;;;;12.90;5.60;;;;;;;6.27;100.00;98529.92;4009161;87;21871;-87
2023/01/05 16:24:35;;;;;;;6.80;3.92;;;;;;;6.45;100.00;98524.05;4011961;87;21111;-88
2023/01/05 16:30:43;;;;;;;8.95;3.95;;;;;;;6.63;100.00;98527.31;3948932;88;21090;-92
2023/01/05 16:37:08;;;;;;;10.65;4.17;;;;;;;6.75;100.00;98531.22;3931387;89;21058;-88
2023/01/05 16:43:45;;;;;;;9.18;4.47;;;;;;;6.81;100.00;98524.93;3943870;87;21086;-88
2023/01/05 16:49:46;;;;;;;12.95;5.15;;;;;;;6.87;100.00;98520.77;3953298;87;21074;-88
2023/01/05 16:55:47;;;;;;;16.05;5.85;;;;;;;6.92;100.00;98523.19;3944249;89;21006;-88
2023/01/05 17:01:49;;;;;;;10.25;5.78;;;;;;;6.92;100.00;98543.59;3948041;87;21061;-90
2023/01/05 17:08:04;;;;;;;10.05;3.90;;;;;;;7.01;100.00;98552.31;3951251;87;21111;-88
2023/01/05 17:14:06;;;;;;;9.83;5.00;;;;;;;7.07;100.00;98587.59;3949359;88;21061;-88
2023/01/05 17:20:12;;;;;;;6.78;2.92;;;;;;;7.00;100.00;98645.40;3927923;87;21030;-88
2023/01/05 17:26:21;;;;;;;4.92;2.40;;;;;;;6.68;100.00;98634.47;3985284;86;21004;-86
2023/01/05 17:32:24;;;;;;;7.17;2.55;;;;;;;6.48;100.00;98651.92;4076692;86;22205;-89
2023/01/05 17:38:32;;;;;;;8.18;3.08;;;;;;;6.40;100.00;98656.98;4074207;86;21700;-88
2023/01/05 17:44:33;;;;;;;6.22;3.67;;;;;;;6.38;100.00;98657.34;4066243;86;21086;-89
2023/01/05 17:50:34;;;;;;;7.17;3.30;;;;;;;6.32;100.00;98673.72;4070072;86;21568;-88
2023/01/05 17:56:36;;;;;;;11.93;3.50;;;;;;;6.28;100.00;98680.19;4068452;86;21062;-87
2023/01/05 18:02:39;;;;;;;7.45;2.87;;;;;;;6.32;100.00;98685.15;4067931;86;21086;-87
2023/01/05 18:08:41;;;;;;;9.18;3.15;;;;;;;6.31;100.00;98695.81;4067328;86;22099;-88
2023/01/05 18:14:42;;;;;;;11.53;6.92;;;;;;;6.35;100.00;98699.39;4071568;86;21102;-89
2023/01/05 18:20:44;;;;;;;13.13;7.90;;;;;;;6.32;100.00;98709.62;4070556;86;21067;-89
2023/01/05 18:26:47;;;;;;;11.40;6.33;;;;;;;6.32;100.00;98702.82;4067919;86;21936;-88
2023/01/05 18:32:49;;;;;;;9.30;5.40;;;;;;;6.33;100.00;98717.42;3960609;87;21179;-89
2023/01/05 18:38:51;;;;;;;6.90;5.00;;;;;;;6.35;100.00;98715.14;3987298;88;21571;-89
2023/01/05 18:44:52;;;;;;;10.23;5.30;;;;;;;6.36;100.00;98719.99;4068228;86;21067;-89
2023/01/05 18:50:55;;;;;;;8.28;4.85;;;;;;;6.37;100.00;98735.18;4054976;86;22467;-88
2023/01/05 18:56:56;;;;;;;6.65;4.00;;;;;;;6.33;100.00;98743.25;3985924;87;21067;-88
2023/01/05 19:02:58;;;;;;;9.03;4.10;;;;;;;6.30;100.00;98758.91;3973242;88;21550;-87
2023/01/05 19:09:03;;;;;;;11.95;5.42;;;;;;;6.27;100.00;98768.33;4055107;86;21053;-88
2023/01/05 19:15:06;;;;;;;14.83;8.40;;;;;;;6.34;100.00;98782.88;4067442;85;21068;-89
2023/01/05 19:21:07;;;;;;;11.65;5.40;;;;;;;6.35;100.00;98806.78;4070299;86;21012;-88
2023/01/05 19:27:09;;;;;;;7.53;2.60;;;;;;;6.37;100.00;98799.84;4066131;86;21572;-88
2023/01/05 19:33:10;;;;;;;5.25;3.30;;;;;;;6.36;100.00;98812.42;4045541;86;21551;-88
2023/01/05 19:39:16;;;;;;;9.48;3.85;;;;;;;6.33;100.00;98826.16;4038469;87;21020;-90
2023/01/05 19:45:18;;;;;;;4.33;1.87;;;;;;;6.34;100.00;98830.45;4018724;87;21508;-88
2023/01/05 19:51:23;;;;;;;21.95;5.35;;;;;;;6.39;100.00;98838.35;4038244;87;21006;-90
2023/01/05 19:57:27;;;;;;;10.60;3.47;;;;;;;6.39;100.00;98844.34;4033498;87;21095;-89
2023/01/05 20:03:28;;;;;;;11.53;2.70;;;;;;;6.36;100.00;98864.88;4035431;87;21047;-90
2023/01/05 20:09:31;;;;;;;7.12;2.87;;;;;;;6.33;100.00;98875.66;4034407;86;21199;-91
2023/01/05 20:15:35;;;;;;;5.67;2.35;;;;;;;6.29;100.00;98901.42;4031757;86;21087;-88
2023/01/05 20:21:36;;;;;;;4.67;1.75;;;;;;;6.20;100.00;98907.56;4037964;87;21076;-88
2023/01/05 20:27:38;;;;;;;7.87;2.00;;;;;;;6.17;100.00;98919.13;4049997;86;21007;-89
2023/01/05 20:33:42;;;;;;;7.55;2.00;;;;;;;6.10;100.00;98914.08;4043007;86;21592;-90
2023/01/05 20:39:43;;;;;;;4.90;2.05;;;;;;;6.02;100.00;98928.60;4037942;87;21001;-88
2023/01/05 20:45:45;;;;;;;5.03;2.30;;;;;;;6.03;100.00;98948.64;4034901;87;21029;-87
2023/01/05 20:51:46;;;;;;;5.97;2.55;;;;;;;5.99;100.00;98962.70;4034506;87;22045;-89
2023/01/05 20:57:48;;;;;;;5.47;2.10;;;;;;;5.89;100.00;98982.20;4036113;87;21060;-89
2023/01/05 21:03:49;;;;;;;7.42;2.83;;;;;;;5.84;100.00;98987.87;4036979;87;21048;-88
2023/01/05 21:09:51;;;;;;;5.92;2.20;;;;;;;5.81;100.00;99005.41;4031880;86;21591;-89
2023/01/05 21:16:02;;;;;;;6.95;2.42;;;;;;;5.74;100.00;99014.13;4031299;87;21048;-88
2023/01/05 21:22:05;;;;;;;7.65;2.30;;;;;;;5.65;100.00;99030.33;4032030;87;21014;-88
2023/01/05 21:28:06;;;;;;;7.78;2.95;;;;;;;5.56;100.00;99043.24;4054109;86;21468;-89
2023/01/05 21:34:10;;;;;;;7.53;2.80;;;;;;;5.46;100.00;99049.12;3983330;87;21079;-88
2023/01/05 21:40:11;;;;;;;7.55;3.05;;;;;;;5.37;100.00;99057.95;3990265;88;21110;-90
2023/01/05 21:46:12;;;;;;;9.75;3.27;;;;;;;5.28;100.00;99066.19;4067862;86;21075;-90
2023/01/05 21:58:34;;;;;;;4.50;2.30;;;;;;;5.18;100.00;99082.92;4069379;84;21078;-88
2023/01/05 22:04:35;;;;;;;5.17;2.42;;;;;;;5.08;100.00;99114.55;3986766;87;21071;-88
2023/01/05 22:10:36;;;;;;;3.83;2.00;;;;;;;5.05;100.00;99101.66;3990023;88;21071;-89
2023/01/05 22:16:38;;;;;;;5.33;2.08;;;;;;;5.06;100.00;99124.16;4070435;86;21047;-89
2023/01/05 22:22:39;;;;;;;6.17;2.55;;;;;;;5.01;100.00;99122.47;4068885;86;21707;-88
2023/01/05 22:28:43;;;;;;;5.12;2.92;;;;;;;4.94;100.00;99121.40;4064013;86;20985;-89
2023/01/05 22:34:45;;;;;;;8.45;2.83;;;;;;;4.85;100.00;99139.13;4036565;87;21634;-88
2023/01/05 22:40:56;;;;;;;6.15;2.70;;;;;;;4.73;100.00;99147.20;4037732;87;21075;-89
2023/01/05 22:46:57;;;;;;;7.40;2.87;;;;;;;4.61;100.00;99164.78;4035822;87;21087;-89
2023/01/05 22:52:59;;;;;;;7.05;2.77;;;;;;;4.57;100.00;99178.78;4030846;86;21525;-88
2023/01/05 22:59:01;;;;;;;10.15;3.60;;;;;;;4.57;100.00;99189.04;4034280;87;21036;-89
2023/01/05 23:05:03;;;;;;;7.58;3.15;;;;;;;4.63;100.00;99189.09;4036876;87;21048;-90
2023/01/05 23:11:10;;;;;;;5.62;3.60;;;;;;;4.70;100.00;99201.55;4036485;86;21032;-89
2023/01/05 23:17:11;;;;;;;;;;;;;;;4.72;100.00;99207.99;4041187;87;21060;-91
2023/01/05 23:23:12;;;;;;;4.78;3.10;;;;;;;4.74;100.00;99211.18;4032955;86;20519;-89
2023/01/05 23:29:15;;;;;;;10.45;3.33;;;;;;;4.75;100.00;99223.60;4056250;86;21075;-89
2023/01/05 23:35:16;;;;;;;10.15;3.95;;;;;;;4.74;100.00;99237.72;4074004;86;21183;-90
2023/01/05 23:41:17;;;;;;;9.73;3.52;;;;;;;4.74;100.00;99252.63;4068096;86;21032;-89
2023/01/05 23:47:19;;;;;;;6.47;2.62;;;;;;;4.74;100.00;99261.34;4074817;86;21052;-89
2023/01/05 23:53:20;;;;;;;7.35;2.70;;;;;;;4.74;100.00;99268.13;3988090;87;21076;-89
2023/01/05 23:59:21;;;;;;;4.97;2.45;;;;;;;4.72;100.00;99283.38;3971666;88;21047;-88
